RYR61LJ LEPA-LEZL
Flight info
| Callsign | RYR61LJ |
|---|---|
| Flight time | 1h 11m |
| Altitude | 37000 |
| Route | EPAMA4A EPAMA N733 VLC M985 YES N747 BLN BLN3E |
| Aircraft | A320/M-SDE3FGHIRWY/LB1 |
Departure
| Time | 2026-04-24 14:31 |
|---|---|
| Airport | Palma de Mallorca Airport (LEPA) |
Arrival
| Time | 2026-04-24 15:43 |
|---|---|
| Airport | Seville Airport (LEZL) |
| Time | Latitude | Longitude | Altitude | Speed | Heading |
|---|---|---|---|---|---|
| 2026-04-24 14:12 | 39.55019 | 2.73489 | 37 ft | 0 kts | 165° |
| 2026-04-24 14:23 | 39.55021 | 2.73488 | 36 ft | 2 kts | 165° |
| 2026-04-24 14:23 | 39.55032 | 2.73485 | 36 ft | 2 kts | 167° |
| 2026-04-24 14:23 | 39.55043 | 2.73482 | 38 ft | 2 kts | 140° |
| 2026-04-24 14:24 | 39.55051 | 2.73471 | 38 ft | 2 kts | 100° |
| 2026-04-24 14:24 | 39.55052 | 2.73456 | 36 ft | 2 kts | 92° |
| 2026-04-24 14:24 | 39.55052 | 2.73442 | 38 ft | 2 kts | 102° |
| 2026-04-24 14:24 | 39.55054 | 2.73429 | 34 ft | 0 kts | 58° |
| 2026-04-24 14:26 | 39.55056 | 2.73433 | 36 ft | 3 kts | 53° |
| 2026-04-24 14:26 | 39.55093 | 2.73451 | 38 ft | 8 kts | 14° |
| 2026-04-24 14:26 | 39.55134 | 2.73501 | 38 ft | 9 kts | 49° |
| 2026-04-24 14:27 | 39.55171 | 2.73579 | 38 ft | 11 kts | 56° |
| 2026-04-24 14:27 | 39.55244 | 2.73581 | 36 ft | 13 kts | 316° |
| 2026-04-24 14:27 | 39.55325 | 2.73517 | 38 ft | 15 kts | 333° |
| 2026-04-24 14:27 | 39.55414 | 2.73462 | 38 ft | 14 kts | 346° |
| 2026-04-24 14:28 | 39.55489 | 2.73545 | 38 ft | 16 kts | 58° |
| 2026-04-24 14:28 | 39.55576 | 2.73535 | 38 ft | 14 kts | 336° |
| 2026-04-24 14:28 | 39.55669 | 2.73531 | 38 ft | 15 kts | 49° |
| 2026-04-24 14:28 | 39.55728 | 2.73661 | 38 ft | 18 kts | 59° |
| 2026-04-24 14:29 | 39.55799 | 2.73807 | 37 ft | 20 kts | 58° |
| 2026-04-24 14:29 | 39.55879 | 2.73972 | 38 ft | 23 kts | 57° |
| 2026-04-24 14:29 | 39.55964 | 2.74154 | 38 ft | 25 kts | 59° |
| 2026-04-24 14:29 | 39.56076 | 2.74292 | 35 ft | 22 kts | 29° |
| 2026-04-24 14:30 | 39.56172 | 2.74349 | 38 ft | 11 kts | 359° |
| 2026-04-24 14:30 | 39.56225 | 2.74282 | 38 ft | 13 kts | 269° |
| 2026-04-24 14:30 | 39.56215 | 2.74244 | 37 ft | 0 kts | 242° |
| 2026-04-24 14:30 | 39.56214 | 2.74241 | 37 ft | 0 kts | 242° |
| 2026-04-24 14:31 | 39.56096 | 2.73987 | 37 ft | 70 kts | 238° |
| 2026-04-24 14:31 | 39.55728 | 2.73205 | 38 ft | 130 kts | 238° |
| 2026-04-24 14:31 | 39.55166 | 2.72033 | 55 ft | 173 kts | 239° |
| 2026-04-24 14:31 | 39.54546 | 2.70746 | 729 ft | 166 kts | 239° |
| 2026-04-24 14:32 | 39.53968 | 2.69514 | 1326 ft | 169 kts | 234° |
| 2026-04-24 14:32 | 39.53302 | 2.68222 | 1738 ft | 183 kts | 234° |
| 2026-04-24 14:32 | 39.52550 | 2.66736 | 1895 ft | 211 kts | 235° |
| 2026-04-24 14:32 | 39.51665 | 2.65011 | 1914 ft | 253 kts | 234° |
| 2026-04-24 14:33 | 39.50569 | 2.62915 | 2022 ft | 290 kts | 235° |
| 2026-04-24 14:33 | 39.49508 | 2.60840 | 3138 ft | 265 kts | 236° |
| 2026-04-24 14:33 | 39.48548 | 2.58948 | 3613 ft | 239 kts | 237° |
| 2026-04-24 14:33 | 39.47657 | 2.57190 | 3832 ft | 237 kts | 237° |
| 2026-04-24 14:34 | 39.46754 | 2.55407 | 4020 ft | 237 kts | 237° |
| 2026-04-24 14:34 | 39.45853 | 2.53634 | 4888 ft | 236 kts | 236° |
| 2026-04-24 14:34 | 39.45097 | 2.51724 | 5500 ft | 249 kts | 259° |
| 2026-04-24 14:34 | 39.45247 | 2.49440 | 5885 ft | 269 kts | 292° |
| 2026-04-24 14:35 | 39.45976 | 2.47161 | 6587 ft | 279 kts | 288° |
| 2026-04-24 14:35 | 39.46508 | 2.44729 | 7422 ft | 282 kts | 285° |
| 2026-04-24 14:35 | 39.46951 | 2.42249 | 8308 ft | 284 kts | 282° |
| 2026-04-24 14:35 | 39.47333 | 2.39735 | 9184 ft | 285 kts | 281° |
| 2026-04-24 14:36 | 39.47681 | 2.37199 | 10078 ft | 287 kts | 281° |
| 2026-04-24 14:36 | 39.48024 | 2.34598 | 10533 ft | 304 kts | 280° |
| 2026-04-24 14:36 | 39.48386 | 2.31805 | 10826 ft | 323 kts | 281° |
| 2026-04-24 14:36 | 39.48760 | 2.28907 | 11438 ft | 330 kts | 280° |
| 2026-04-24 14:37 | 39.49142 | 2.25943 | 12076 ft | 337 kts | 279° |
| 2026-04-24 14:37 | 39.49530 | 2.22934 | 12757 ft | 341 kts | 279° |
| 2026-04-24 14:37 | 39.49925 | 2.19892 | 13481 ft | 344 kts | 279° |
| 2026-04-24 14:37 | 39.50324 | 2.16821 | 14156 ft | 348 kts | 279° |
| 2026-04-24 14:38 | 39.50727 | 2.13723 | 14785 ft | 351 kts | 279° |
| 2026-04-24 14:38 | 39.51135 | 2.10585 | 15388 ft | 355 kts | 279° |
| 2026-04-24 14:38 | 39.51546 | 2.07418 | 15988 ft | 359 kts | 279° |
| 2026-04-24 14:38 | 39.51963 | 2.04217 | 16585 ft | 362 kts | 279° |
| 2026-04-24 14:39 | 39.52384 | 2.00988 | 17192 ft | 366 kts | 279° |
| 2026-04-24 14:39 | 39.52807 | 1.97723 | 17795 ft | 369 kts | 279° |
| 2026-04-24 14:39 | 39.53230 | 1.94421 | 18396 ft | 373 kts | 279° |
| 2026-04-24 14:39 | 39.53657 | 1.91089 | 18927 ft | 377 kts | 279° |
| 2026-04-24 14:40 | 39.54087 | 1.87726 | 19463 ft | 381 kts | 278° |
| 2026-04-24 14:40 | 39.54520 | 1.84328 | 20014 ft | 384 kts | 278° |
| 2026-04-24 14:40 | 39.54953 | 1.80899 | 20603 ft | 386 kts | 278° |
| 2026-04-24 14:40 | 39.55388 | 1.77456 | 21181 ft | 389 kts | 278° |
| 2026-04-24 14:41 | 39.55825 | 1.73992 | 21749 ft | 391 kts | 278° |
| 2026-04-24 14:41 | 39.56265 | 1.70504 | 22306 ft | 393 kts | 278° |
| 2026-04-24 14:41 | 39.56709 | 1.66996 | 22865 ft | 396 kts | 278° |
| 2026-04-24 14:41 | 39.57155 | 1.63467 | 23426 ft | 398 kts | 278° |
| 2026-04-24 14:42 | 39.57601 | 1.59921 | 23934 ft | 400 kts | 278° |
| 2026-04-24 14:42 | 39.58048 | 1.56348 | 24387 ft | 402 kts | 278° |
| 2026-04-24 14:42 | 39.58496 | 1.52761 | 24822 ft | 405 kts | 278° |
| 2026-04-24 14:42 | 39.58944 | 1.49140 | 25235 ft | 408 kts | 278° |
| 2026-04-24 14:43 | 39.59394 | 1.45497 | 25639 ft | 411 kts | 278° |
| 2026-04-24 14:43 | 39.59849 | 1.41827 | 26050 ft | 413 kts | 278° |
| 2026-04-24 14:43 | 39.60203 | 1.38123 | 26454 ft | 415 kts | 271° |
| 2026-04-24 14:43 | 39.60126 | 1.34382 | 26848 ft | 416 kts | 265° |
| 2026-04-24 14:44 | 39.59911 | 1.30624 | 27235 ft | 419 kts | 265° |
| 2026-04-24 14:44 | 39.59693 | 1.26851 | 27613 ft | 421 kts | 265° |
| 2026-04-24 14:44 | 39.59475 | 1.23050 | 27992 ft | 424 kts | 265° |
| 2026-04-24 14:44 | 39.59261 | 1.19277 | 28370 ft | 426 kts | 265° |
| 2026-04-24 14:45 | 39.59045 | 1.15436 | 28746 ft | 429 kts | 265° |
| 2026-04-24 14:45 | 39.58831 | 1.11575 | 29123 ft | 431 kts | 265° |
| 2026-04-24 14:45 | 39.58612 | 1.07687 | 29491 ft | 433 kts | 264° |
| 2026-04-24 14:45 | 39.58388 | 1.03780 | 29882 ft | 436 kts | 264° |
| 2026-04-24 14:46 | 39.58160 | 0.99858 | 30240 ft | 438 kts | 265° |
| 2026-04-24 14:46 | 39.57931 | 0.95913 | 30549 ft | 440 kts | 264° |
| 2026-04-24 14:46 | 39.57699 | 0.91945 | 30855 ft | 442 kts | 264° |
| 2026-04-24 14:46 | 39.57463 | 0.87958 | 31160 ft | 444 kts | 264° |
| 2026-04-24 14:47 | 39.57223 | 0.83958 | 31496 ft | 445 kts | 264° |
| 2026-04-24 14:47 | 39.56983 | 0.79965 | 31927 ft | 444 kts | 264° |
| 2026-04-24 14:47 | 39.56743 | 0.75985 | 32379 ft | 443 kts | 264° |
| 2026-04-24 14:47 | 39.56504 | 0.72015 | 32815 ft | 442 kts | 264° |
| 2026-04-24 14:48 | 39.56264 | 0.68056 | 33250 ft | 441 kts | 263° |
| 2026-04-24 14:48 | 39.56020 | 0.64104 | 33691 ft | 439 kts | 263° |
| 2026-04-24 14:48 | 39.55776 | 0.60162 | 34129 ft | 438 kts | 263° |
| 2026-04-24 14:48 | 39.55531 | 0.56226 | 34500 ft | 437 kts | 263° |
| 2026-04-24 14:49 | 39.55288 | 0.52304 | 34852 ft | 437 kts | 263° |
| 2026-04-24 14:49 | 39.55043 | 0.48381 | 35190 ft | 436 kts | 263° |
| 2026-04-24 14:49 | 39.54799 | 0.44468 | 35515 ft | 436 kts | 263° |
| 2026-04-24 14:49 | 39.54553 | 0.40552 | 35838 ft | 435 kts | 263° |
| 2026-04-24 14:50 | 39.54304 | 0.36648 | 36158 ft | 435 kts | 263° |
| 2026-04-24 14:50 | 39.54054 | 0.32739 | 36457 ft | 435 kts | 263° |
| 2026-04-24 14:50 | 39.53805 | 0.28841 | 36758 ft | 434 kts | 263° |
| 2026-04-24 14:50 | 39.53554 | 0.24944 | 37028 ft | 434 kts | 263° |
| 2026-04-24 14:51 | 39.53298 | 0.21041 | 37117 ft | 437 kts | 263° |
| 2026-04-24 14:51 | 39.52772 | 0.13087 | 37126 ft | 449 kts | 263° |
| 2026-04-24 14:52 | 39.52231 | 0.04952 | 37132 ft | 457 kts | 263° |
| 2026-04-24 14:52 | 39.51677 | -0.03234 | 37127 ft | 460 kts | 262° |
| 2026-04-24 14:53 | 39.51124 | -0.11487 | 37130 ft | 460 kts | 262° |
| 2026-04-24 14:53 | 39.50570 | -0.19738 | 37132 ft | 460 kts | 262° |
| 2026-04-24 14:54 | 39.50000 | -0.27995 | 37141 ft | 460 kts | 262° |
| 2026-04-24 14:54 | 39.49417 | -0.36262 | 37151 ft | 461 kts | 262° |
| 2026-04-24 14:55 | 39.48888 | -0.43128 | 37152 ft | 460 kts | 257° |
| 2026-04-24 14:55 | 39.47754 | -0.48403 | 37155 ft | 455 kts | 244° |
| 2026-04-24 14:55 | 39.46318 | -0.52027 | 37156 ft | 451 kts | 234° |
| 2026-04-24 14:56 | 39.42609 | -0.58472 | 37158 ft | 450 kts | 230° |
| 2026-04-24 14:56 | 39.38824 | -0.64927 | 37156 ft | 450 kts | 230° |
| 2026-04-24 14:57 | 39.35032 | -0.71384 | 37149 ft | 450 kts | 230° |
| 2026-04-24 14:57 | 39.31245 | -0.77820 | 37169 ft | 450 kts | 230° |
| 2026-04-24 14:58 | 39.27449 | -0.84247 | 37152 ft | 450 kts | 230° |
| 2026-04-24 14:58 | 39.23651 | -0.90659 | 37148 ft | 450 kts | 230° |
| 2026-04-24 14:59 | 39.19851 | -0.97076 | 37150 ft | 450 kts | 230° |
| 2026-04-24 14:59 | 39.16039 | -1.03496 | 37151 ft | 451 kts | 230° |
| 2026-04-24 15:00 | 39.12253 | -1.09867 | 37151 ft | 451 kts | 230° |
| 2026-04-24 15:00 | 39.08435 | -1.16271 | 37167 ft | 451 kts | 230° |
| 2026-04-24 15:01 | 39.04612 | -1.22675 | 37158 ft | 451 kts | 230° |
| 2026-04-24 15:01 | 39.00786 | -1.29065 | 37156 ft | 450 kts | 230° |
| 2026-04-24 15:02 | 38.96962 | -1.35447 | 37154 ft | 450 kts | 230° |
| 2026-04-24 15:02 | 38.93132 | -1.41813 | 37150 ft | 450 kts | 229° |
| 2026-04-24 15:03 | 38.89949 | -1.47095 | 37154 ft | 450 kts | 229° |
| 2026-04-24 15:03 | 38.85493 | -1.54476 | 37173 ft | 449 kts | 229° |
| 2026-04-24 15:04 | 38.81666 | -1.60812 | 37168 ft | 449 kts | 229° |
| 2026-04-24 15:04 | 38.77838 | -1.67129 | 37164 ft | 448 kts | 229° |
| 2026-04-24 15:05 | 38.74009 | -1.73434 | 37159 ft | 448 kts | 229° |
| 2026-04-24 15:05 | 38.70184 | -1.79731 | 37158 ft | 448 kts | 229° |
| 2026-04-24 15:06 | 38.66999 | -1.84965 | 37155 ft | 448 kts | 229° |
| 2026-04-24 15:06 | 38.63160 | -1.91248 | 37173 ft | 448 kts | 229° |
| 2026-04-24 15:07 | 38.59318 | -1.97521 | 37164 ft | 448 kts | 229° |
| 2026-04-24 15:07 | 38.55469 | -2.03806 | 37144 ft | 448 kts | 229° |
| 2026-04-24 15:08 | 38.51622 | -2.10077 | 37148 ft | 448 kts | 229° |
| 2026-04-24 15:08 | 38.47802 | -2.16285 | 37150 ft | 447 kts | 229° |
| 2026-04-24 15:09 | 38.43962 | -2.22531 | 37138 ft | 447 kts | 229° |
| 2026-04-24 15:09 | 38.40107 | -2.28769 | 37133 ft | 447 kts | 229° |
| 2026-04-24 15:10 | 38.36603 | -2.35336 | 37144 ft | 452 kts | 242° |
| 2026-04-24 15:10 | 38.34852 | -2.43072 | 37145 ft | 458 kts | 256° |
| 2026-04-24 15:11 | 38.33594 | -2.51046 | 37127 ft | 459 kts | 255° |
| 2026-04-24 15:11 | 38.32316 | -2.59021 | 37130 ft | 459 kts | 255° |
| 2026-04-24 15:12 | 38.31035 | -2.66953 | 37123 ft | 459 kts | 255° |
| 2026-04-24 15:12 | 38.29107 | -2.78903 | 37116 ft | 460 kts | 256° |
| 2026-04-24 15:13 | 38.27819 | -2.86878 | 37113 ft | 460 kts | 256° |
| 2026-04-24 15:13 | 38.26519 | -2.94862 | 37115 ft | 461 kts | 255° |
| 2026-04-24 15:14 | 38.25208 | -3.02844 | 37119 ft | 461 kts | 255° |
| 2026-04-24 15:14 | 38.23891 | -3.10833 | 37127 ft | 462 kts | 256° |
| 2026-04-24 15:15 | 38.23236 | -3.14811 | 36938 ft | 455 kts | 255° |
| 2026-04-24 15:15 | 38.22593 | -3.18706 | 36671 ft | 445 kts | 255° |
| 2026-04-24 15:15 | 38.21962 | -3.22528 | 36404 ft | 440 kts | 255° |
| 2026-04-24 15:15 | 38.21335 | -3.26323 | 36146 ft | 437 kts | 255° |
| 2026-04-24 15:16 | 38.20709 | -3.30097 | 35892 ft | 435 kts | 255° |
| 2026-04-24 15:16 | 38.20084 | -3.33850 | 35638 ft | 433 kts | 254° |
| 2026-04-24 15:16 | 38.19462 | -3.37579 | 35385 ft | 431 kts | 254° |
| 2026-04-24 15:17 | 38.16897 | -3.52773 | 34395 ft | 426 kts | 253° |
| 2026-04-24 15:17 | 38.16270 | -3.56450 | 34155 ft | 424 kts | 252° |
| 2026-04-24 15:18 | 38.15657 | -3.60057 | 33896 ft | 422 kts | 252° |
| 2026-04-24 15:18 | 38.15029 | -3.63695 | 33620 ft | 420 kts | 252° |
| 2026-04-24 15:18 | 38.14337 | -3.67295 | 33347 ft | 418 kts | 250° |
| 2026-04-24 15:18 | 38.13594 | -3.70846 | 33024 ft | 413 kts | 250° |
| 2026-04-24 15:19 | 38.12828 | -3.74340 | 32585 ft | 410 kts | 249° |
| 2026-04-24 15:19 | 38.12056 | -3.77814 | 32131 ft | 408 kts | 249° |
| 2026-04-24 15:19 | 38.11293 | -3.81280 | 31700 ft | 405 kts | 250° |
| 2026-04-24 15:19 | 38.10544 | -3.84726 | 31275 ft | 404 kts | 250° |
| 2026-04-24 15:20 | 38.09806 | -3.88166 | 30846 ft | 403 kts | 251° |
| 2026-04-24 15:20 | 38.09077 | -3.91592 | 30430 ft | 402 kts | 251° |
| 2026-04-24 15:20 | 38.08349 | -3.95019 | 29989 ft | 402 kts | 251° |
| 2026-04-24 15:20 | 38.07621 | -3.98442 | 29575 ft | 401 kts | 251° |
| 2026-04-24 15:21 | 38.06904 | -4.01815 | 29177 ft | 400 kts | 251° |
| 2026-04-24 15:21 | 38.06180 | -4.05214 | 28789 ft | 397 kts | 251° |
| 2026-04-24 15:21 | 38.05458 | -4.08589 | 28412 ft | 394 kts | 251° |
| 2026-04-24 15:21 | 38.04738 | -4.11934 | 28028 ft | 392 kts | 251° |
| 2026-04-24 15:22 | 38.04020 | -4.15266 | 27627 ft | 390 kts | 251° |
| 2026-04-24 15:22 | 38.03306 | -4.18581 | 27248 ft | 388 kts | 251° |
| 2026-04-24 15:22 | 38.02596 | -4.21872 | 26862 ft | 386 kts | 251° |
| 2026-04-24 15:23 | 38.01181 | -4.28410 | 26077 ft | 383 kts | 251° |
| 2026-04-24 15:23 | 37.99775 | -4.34898 | 25247 ft | 380 kts | 251° |
| 2026-04-24 15:23 | 37.99071 | -4.38129 | 24833 ft | 379 kts | 251° |
| 2026-04-24 15:24 | 37.96967 | -4.47771 | 23526 ft | 377 kts | 252° |
| 2026-04-24 15:25 | 37.95805 | -4.53068 | 22793 ft | 373 kts | 252° |
| 2026-04-24 15:25 | 37.94191 | -4.60401 | 21798 ft | 367 kts | 252° |
| 2026-04-24 15:26 | 37.92160 | -4.69617 | 20530 ft | 361 kts | 252° |
| 2026-04-24 15:27 | 37.90131 | -4.78764 | 19261 ft | 360 kts | 252° |
| 2026-04-24 15:27 | 37.88092 | -4.87926 | 17932 ft | 360 kts | 252° |
| 2026-04-24 15:28 | 37.85415 | -4.99949 | 16236 ft | 352 kts | 253° |
| 2026-04-24 15:29 | 37.84095 | -5.05869 | 15405 ft | 347 kts | 254° |
| 2026-04-24 15:30 | 37.82138 | -5.14575 | 14180 ft | 340 kts | 254° |
| 2026-04-24 15:31 | 37.79792 | -5.24946 | 12666 ft | 330 kts | 255° |
| 2026-04-24 15:32 | 37.77062 | -5.36831 | 11009 ft | 318 kts | 249° |
| 2026-04-24 15:33 | 37.71294 | -5.44816 | 9843 ft | 297 kts | 222° |
| 2026-04-24 15:33 | 37.66775 | -5.49890 | 8336 ft | 282 kts | 222° |
| 2026-04-24 15:34 | 37.63948 | -5.53072 | 7641 ft | 267 kts | 223° |
| 2026-04-24 15:35 | 37.59801 | -5.57827 | 6626 ft | 270 kts | 223° |
| 2026-04-24 15:35 | 37.57012 | -5.61024 | 5844 ft | 275 kts | 222° |
| 2026-04-24 15:35 | 37.55590 | -5.62648 | 5491 ft | 276 kts | 222° |
| 2026-04-24 15:36 | 37.54050 | -5.64074 | 5098 ft | 276 kts | 201° |
| 2026-04-24 15:36 | 37.50476 | -5.63296 | 4328 ft | 272 kts | 143° |
| 2026-04-24 15:36 | 37.49478 | -5.62341 | 4139 ft | 270 kts | 142° |
| 2026-04-24 15:37 | 37.47932 | -5.61011 | 3874 ft | 266 kts | 150° |
| 2026-04-24 15:37 | 37.46276 | -5.60088 | 3772 ft | 256 kts | 162° |
| 2026-04-24 15:37 | 37.44564 | -5.59798 | 3664 ft | 245 kts | 191° |
| 2026-04-24 15:37 | 37.43103 | -5.60726 | 3570 ft | 233 kts | 222° |
| 2026-04-24 15:38 | 37.42170 | -5.62309 | 3477 ft | 222 kts | 247° |
| 2026-04-24 15:38 | 37.41842 | -5.64140 | 3372 ft | 210 kts | 269° |
| 2026-04-24 15:38 | 37.41840 | -5.65940 | 3299 ft | 203 kts | 270° |
| 2026-04-24 15:38 | 37.41840 | -5.67689 | 3143 ft | 197 kts | 270° |
| 2026-04-24 15:39 | 37.41838 | -5.69388 | 2891 ft | 193 kts | 270° |
| 2026-04-24 15:39 | 37.41836 | -5.71062 | 2629 ft | 189 kts | 270° |
| 2026-04-24 15:39 | 37.41834 | -5.72687 | 2369 ft | 181 kts | 269° |
| 2026-04-24 15:39 | 37.41831 | -5.74207 | 2136 ft | 166 kts | 268° |
| 2026-04-24 15:40 | 37.41829 | -5.75595 | 1930 ft | 151 kts | 267° |
| 2026-04-24 15:40 | 37.41827 | -5.76871 | 1747 ft | 140 kts | 267° |
| 2026-04-24 15:40 | 37.41824 | -5.78065 | 1569 ft | 137 kts | 268° |
| 2026-04-24 15:40 | 37.41821 | -5.79277 | 1381 ft | 136 kts | 267° |
| 2026-04-24 15:41 | 37.41818 | -5.80438 | 1203 ft | 133 kts | 266° |
| 2026-04-24 15:41 | 37.41817 | -5.81595 | 1056 ft | 133 kts | 266° |
| 2026-04-24 15:41 | 37.41790 | -5.82755 | 866 ft | 134 kts | 265° |
| 2026-04-24 15:41 | 37.41782 | -5.83935 | 675 ft | 136 kts | 270° |
| 2026-04-24 15:42 | 37.41783 | -5.85138 | 516 ft | 138 kts | 270° |
| 2026-04-24 15:42 | 37.41797 | -5.86362 | 331 ft | 138 kts | 270° |
| 2026-04-24 15:42 | 37.41791 | -5.87554 | 148 ft | 138 kts | 272° |
| 2026-04-24 15:42 | 37.41790 | -5.88674 | 104 ft | 105 kts | 270° |
| 2026-04-24 15:43 | 37.41802 | -5.89206 | 100 ft | 25 kts | 292° |
| 2026-04-24 15:43 | 37.41940 | -5.89336 | 99 ft | 23 kts | 330° |
| 2026-04-24 15:43 | 37.42063 | -5.89467 | 98 ft | 20 kts | 312° |
| 2026-04-24 15:43 | 37.42162 | -5.89502 | 97 ft | 14 kts | 44° |
| 2026-04-24 15:44 | 37.42190 | -5.89422 | 98 ft | 9 kts | 88° |
| 2026-04-24 15:44 | 37.42207 | -5.89385 | 98 ft | 3 kts | 15° |
| 2026-04-24 15:44 | 37.42223 | -5.89385 | 98 ft | 1 kts | 335° |
| 2026-04-24 15:44 | 37.42223 | -5.89391 | 98 ft | 0 kts | 296° |